createdAt,value
2023-06-30T00:00:31.588Z,98568.09
2023-06-30T00:03:26.744Z,98568.02
2023-06-30T00:06:00.072Z,98566.39
2023-06-30T00:08:31.718Z,98571.68
2023-06-30T00:11:04.370Z,98575.44
2023-06-30T00:13:35.344Z,98582.95
2023-06-30T00:16:07.008Z,98588.07
2023-06-30T00:18:38.881Z,98583.50
2023-06-30T00:21:09.442Z,98587.92
2023-06-30T00:23:41.325Z,98588.19
2023-06-30T00:26:13.083Z,98581.62
2023-06-30T00:28:45.390Z,98577.23
2023-06-30T00:31:16.414Z,98579.58
2023-06-30T00:33:47.906Z,98577.89
2023-06-30T00:36:19.716Z,98576.91
2023-06-30T00:38:53.714Z,98575.15
2023-06-30T00:41:24.904Z,98573.69
2023-06-30T00:43:58.606Z,98566.91
2023-06-30T00:46:30.552Z,98564.91
2023-06-30T00:49:02.271Z,98564.40
2023-06-30T00:51:35.418Z,98567.52
2023-06-30T00:54:07.489Z,98572.16
2023-06-30T00:56:39.036Z,98575.27
2023-06-30T00:59:09.584Z,98576.81
2023-06-30T01:01:59.257Z,98573.86
2023-06-30T01:04:40.334Z,98577.27
2023-06-30T01:07:19.621Z,98576.20
2023-06-30T01:10:03.745Z,98572.61
2023-06-30T01:12:37.127Z,98567.41
2023-06-30T01:15:09.677Z,98563.23
2023-06-30T01:17:55.343Z,98565.88
2023-06-30T01:20:36.120Z,98563.20
2023-06-30T01:23:20.230Z,98559.95
2023-06-30T01:25:53.949Z,98556.70
2023-06-30T01:28:25.036Z,98552.43
2023-06-30T01:30:58.521Z,98547.73
2023-06-30T01:33:31.043Z,98545.10
2023-06-30T01:36:03.619Z,98544.64
2023-06-30T01:38:35.796Z,98541.31
2023-06-30T01:41:11.290Z,98541.63
2023-06-30T01:43:46.099Z,98540.87
2023-06-30T01:46:18.666Z,98537.09
2023-06-30T01:48:50.905Z,98536.47
2023-06-30T01:51:22.978Z,98536.95
2023-06-30T01:53:54.400Z,98539.67
2023-06-30T01:56:28.341Z,98541.86
2023-06-30T01:59:02.386Z,98537.77
2023-06-30T02:01:34.596Z,98539.30
2023-06-30T02:04:06.481Z,98540.57
2023-06-30T02:06:37.967Z,98540.84
2023-06-30T02:09:10.111Z,98539.39
2023-06-30T02:11:43.890Z,98544.05
2023-06-30T02:14:14.765Z,98539.65
2023-06-30T02:16:46.089Z,98529.49
2023-06-30T02:19:18.720Z,98523.65
2023-06-30T02:21:51.539Z,98519.17
2023-06-30T02:24:23.721Z,98516.08
2023-06-30T02:27:01.397Z,98517.39
2023-06-30T02:29:34.907Z,98516.77
2023-06-30T02:32:07.796Z,98513.04
2023-06-30T02:34:40.937Z,98511.29
2023-06-30T02:37:14.468Z,98508.63
2023-06-30T02:39:48.166Z,98503.33
2023-06-30T02:42:19.530Z,98499.29
2023-06-30T02:44:51.357Z,98495.11
2023-06-30T02:47:22.452Z,98491.00
2023-06-30T02:49:54.764Z,98491.83
2023-06-30T02:52:26.643Z,98490.29
2023-06-30T02:55:00.521Z,98499.96
2023-06-30T02:57:31.868Z,98508.66
2023-06-30T03:00:05.359Z,98513.41
2023-06-30T03:02:38.270Z,98522.09
2023-06-30T03:05:11.329Z,98521.79
2023-06-30T03:07:44.020Z,98519.48
2023-06-30T03:10:15.473Z,98514.61
2023-06-30T03:12:47.041Z,98514.38
2023-06-30T03:15:19.401Z,98509.77
2023-06-30T03:17:51.745Z,98506.92
2023-06-30T03:20:23.855Z,98506.39
2023-06-30T03:22:58.345Z,98511.88
2023-06-30T03:25:30.969Z,98507.83
2023-06-30T03:28:03.411Z,98506.88
2023-06-30T03:30:36.073Z,98505.80
2023-06-30T03:33:09.867Z,98505.15
2023-06-30T03:35:40.912Z,98507.87
2023-06-30T03:38:13.931Z,98514.50
2023-06-30T03:40:46.184Z,98516.87
2023-06-30T03:43:18.772Z,98514.49
2023-06-30T03:45:53.076Z,98508.86
2023-06-30T03:48:26.564Z,98503.55
2023-06-30T03:51:00.277Z,98504.83
2023-06-30T03:53:33.237Z,98503.74
2023-06-30T03:56:05.400Z,98500.26
2023-06-30T03:58:36.784Z,98503.00
2023-06-30T04:01:10.058Z,98508.43
2023-06-30T04:03:41.735Z,98509.36
2023-06-30T04:06:12.877Z,98505.71
2023-06-30T04:08:44.338Z,98497.23
2023-06-30T04:11:16.522Z,98495.27
2023-06-30T04:13:49.921Z,98493.64
2023-06-30T04:16:21.524Z,98494.32
2023-06-30T04:18:55.382Z,98491.73
2023-06-30T04:21:29.258Z,98490.38
2023-06-30T04:24:00.592Z,98484.00
2023-06-30T04:26:33.670Z,98485.77
2023-06-30T04:29:04.460Z,98489.66
2023-06-30T04:31:34.053Z,98490.08
2023-06-30T04:34:04.261Z,98485.25
2023-06-30T04:36:34.190Z,98482.85
2023-06-30T04:39:04.388Z,98482.52
2023-06-30T04:41:34.549Z,98482.33
2023-06-30T04:44:04.078Z,98480.29
2023-06-30T04:46:33.967Z,98477.01
2023-06-30T04:49:06.404Z,98481.76
2023-06-30T04:51:37.324Z,98487.08
2023-06-30T04:54:06.796Z,98482.07
2023-06-30T04:56:36.112Z,98483.11
2023-06-30T04:59:06.769Z,98482.33
2023-06-30T05:01:36.303Z,98484.25
2023-06-30T05:04:06.422Z,98485.86
2023-06-30T05:06:36.399Z,98481.50
2023-06-30T05:09:06.704Z,98475.27
2023-06-30T05:11:36.477Z,98476.95
2023-06-30T05:14:06.970Z,98471.07
2023-06-30T05:16:36.602Z,98467.18
2023-06-30T05:19:06.241Z,98465.76
2023-06-30T05:21:38.274Z,98462.39
2023-06-30T05:24:09.578Z,98463.42
2023-06-30T05:26:41.432Z,98459.98
2023-06-30T05:29:11.411Z,98454.81
2023-06-30T05:31:40.609Z,98449.41
2023-06-30T05:34:11.856Z,98440.41
2023-06-30T05:36:46.995Z,98434.33
2023-06-30T05:39:18.112Z,98434.38
2023-06-30T05:41:48.232Z,98441.20
2023-06-30T05:44:18.541Z,98449.76
2023-06-30T05:46:50.018Z,98445.98
2023-06-30T05:49:20.650Z,98444.21
2023-06-30T05:51:51.104Z,98442.06
2023-06-30T05:54:20.723Z,98449.84
2023-06-30T05:56:50.368Z,98456.20
2023-06-30T05:59:20.337Z,98459.72
2023-06-30T06:01:50.553Z,98457.30
2023-06-30T06:04:21.575Z,98460.99
2023-06-30T06:06:51.175Z,98460.99
2023-06-30T06:09:20.722Z,98460.66
2023-06-30T06:11:50.716Z,98463.52
2023-06-30T06:14:21.617Z,98464.15
2023-06-30T06:16:52.259Z,98469.70
2023-06-30T06:19:25.508Z,98468.81
2023-06-30T06:21:58.286Z,98472.71
2023-06-30T06:24:29.007Z,98478.14
2023-06-30T06:26:59.745Z,98480.37
2023-06-30T06:29:29.588Z,98482.61
2023-06-30T06:32:00.518Z,98485.23
2023-06-30T06:34:30.611Z,98487.20
2023-06-30T06:37:00.025Z,98495.27
2023-06-30T06:39:30.114Z,98496.05
2023-06-30T06:42:00.281Z,98497.16
2023-06-30T06:44:30.335Z,98497.23
2023-06-30T06:47:37.966Z,98500.92
2023-06-30T06:50:08.528Z,98508.31
2023-06-30T06:52:40.264Z,98511.59
2023-06-30T06:55:10.664Z,98508.66
2023-06-30T06:57:40.053Z,98506.67
2023-06-30T07:00:10.567Z,98511.39
2023-06-30T07:02:41.946Z,98511.77
2023-06-30T07:05:13.844Z,98508.41
2023-06-30T07:07:44.323Z,98503.20
2023-06-30T07:10:14.847Z,98499.30
2023-06-30T07:12:44.394Z,98498.42
2023-06-30T07:15:13.727Z,98490.18
2023-06-30T07:17:43.447Z,98488.79
2023-06-30T07:20:14.535Z,98486.55
2023-06-30T07:22:44.037Z,98484.61
2023-06-30T07:25:13.882Z,98484.77
2023-06-30T07:27:54.824Z,98481.44
2023-06-30T07:30:26.988Z,98481.02
2023-06-30T07:32:57.245Z,98483.69
2023-06-30T07:35:28.092Z,98485.38
2023-06-30T07:37:58.969Z,98484.91
2023-06-30T07:40:38.447Z,98486.42
2023-06-30T07:43:16.311Z,98481.55
2023-06-30T07:45:46.322Z,98482.16
2023-06-30T07:48:16.155Z,98485.22
2023-06-30T07:50:55.419Z,98478.92
2023-06-30T07:53:36.125Z,98485.44
2023-06-30T07:56:06.674Z,98486.39
2023-06-30T07:58:36.908Z,98482.77
2023-06-30T08:01:06.600Z,98484.86
2023-06-30T08:03:36.813Z,98486.23
2023-06-30T08:06:07.243Z,98493.34
2023-06-30T08:08:37.587Z,98493.41
2023-06-30T08:11:08.168Z,98496.13
2023-06-30T08:13:40.129Z,98494.70
2023-06-30T08:16:11.378Z,98500.60
2023-06-30T08:18:52.280Z,98506.92
2023-06-30T08:21:23.648Z,98504.10
2023-06-30T08:23:53.629Z,98506.89
2023-06-30T08:26:23.425Z,98500.52
2023-06-30T08:28:53.348Z,98499.19
2023-06-30T08:31:25.383Z,98495.45
2023-06-30T08:33:55.941Z,98486.04
2023-06-30T08:36:26.573Z,98494.73
2023-06-30T08:38:56.792Z,98494.06
2023-06-30T08:41:27.383Z,98493.75
2023-06-30T08:43:58.829Z,98504.33
2023-06-30T08:46:30.196Z,98510.76
2023-06-30T08:48:59.949Z,98509.70
2023-06-30T08:51:30.217Z,98511.63
2023-06-30T08:54:00.521Z,98513.30
2023-06-30T08:56:31.930Z,98514.30
2023-06-30T08:59:01.992Z,98512.86
2023-06-30T09:01:32.786Z,98515.11
2023-06-30T09:04:03.980Z,98513.23
2023-06-30T09:06:39.819Z,98511.41
2023-06-30T09:09:13.598Z,98513.34
2023-06-30T09:11:42.754Z,98509.17
2023-06-30T09:14:13.189Z,98504.67
2023-06-30T09:16:43.081Z,98499.77
2023-06-30T09:19:14.453Z,98500.59
2023-06-30T09:21:44.039Z,98502.02
2023-06-30T09:24:13.988Z,98493.17
2023-06-30T09:26:43.159Z,98486.44
2023-06-30T09:29:14.844Z,98481.11
2023-06-30T09:31:44.420Z,98475.48
2023-06-30T09:34:15.279Z,98479.96
2023-06-30T09:36:49.221Z,98482.86
2023-06-30T09:39:19.526Z,98475.98
2023-06-30T09:41:50.034Z,98472.60
2023-06-30T09:44:23.692Z,98467.08
2023-06-30T09:46:56.359Z,98458.44
2023-06-30T09:49:34.279Z,98460.88
2023-06-30T09:52:05.478Z,98461.85
2023-06-30T09:54:44.612Z,98464.27
2023-06-30T09:57:14.445Z,98458.25
2023-06-30T09:59:47.484Z,98441.59
2023-06-30T10:02:18.184Z,98432.05
2023-06-30T10:04:48.142Z,98428.56
2023-06-30T10:07:18.125Z,98442.72
2023-06-30T10:09:49.894Z,98438.00
2023-06-30T10:12:20.908Z,98439.16
2023-06-30T10:14:53.067Z,98439.89
2023-06-30T10:17:23.630Z,98439.88
2023-06-30T10:19:55.658Z,98435.70
2023-06-30T10:22:25.537Z,98429.66
2023-06-30T10:24:57.282Z,98428.74
2023-06-30T10:27:28.204Z,98424.95
2023-06-30T10:29:59.005Z,98418.46
2023-06-30T10:32:30.069Z,98420.67
2023-06-30T10:35:01.802Z,98412.59
2023-06-30T10:37:31.967Z,98404.61
2023-06-30T10:40:03.449Z,98403.86
2023-06-30T10:42:44.193Z,98410.40
2023-06-30T10:45:14.180Z,98415.31
2023-06-30T10:47:48.043Z,98414.80
2023-06-30T10:50:19.184Z,98416.27
2023-06-30T10:52:56.546Z,98419.59
2023-06-30T10:55:31.135Z,98416.25
2023-06-30T10:58:05.661Z,98413.80
2023-06-30T11:00:37.915Z,98409.89
2023-06-30T11:03:08.264Z,98404.75
2023-06-30T11:05:38.572Z,98404.55
2023-06-30T11:08:11.875Z,98388.63
2023-06-30T11:10:49.490Z,98383.60
2023-06-30T11:13:38.692Z,98378.58
2023-06-30T11:16:10.374Z,98366.41
2023-06-30T11:18:40.961Z,98362.43
2023-06-30T11:21:10.707Z,98353.42
2023-06-30T11:23:41.746Z,98348.72
2023-06-30T11:26:15.572Z,98338.83
2023-06-30T11:28:50.894Z,98326.45
2023-06-30T11:31:21.162Z,98327.14
2023-06-30T11:33:51.551Z,98322.25
2023-06-30T11:36:22.525Z,98319.91
2023-06-30T11:38:53.207Z,98310.46
2023-06-30T11:41:25.725Z,98320.03
2023-06-30T11:44:00.113Z,98330.02
2023-06-30T11:46:38.207Z,98324.48
2023-06-30T11:49:11.323Z,98321.34
2023-06-30T11:51:42.489Z,98329.11
2023-06-30T11:54:16.041Z,98335.31
2023-06-30T11:56:46.011Z,98348.22
2023-06-30T11:59:15.730Z,98353.72
2023-06-30T12:01:47.654Z,98346.55
2023-06-30T12:04:18.120Z,98340.58
2023-06-30T12:06:48.711Z,98340.14
2023-06-30T12:09:18.866Z,98357.58
2023-06-30T12:11:52.444Z,98360.02
2023-06-30T12:14:28.432Z,98352.59
2023-06-30T12:16:59.837Z,98343.54
2023-06-30T12:19:30.236Z,98342.95
2023-06-30T12:22:08.704Z,98340.53
2023-06-30T12:24:40.568Z,98339.87
2023-06-30T12:27:11.360Z,98341.05
2023-06-30T12:29:48.281Z,98349.76
2023-06-30T12:32:19.572Z,98358.89
2023-06-30T12:35:04.123Z,98362.17
2023-06-30T12:37:37.692Z,98357.83
2023-06-30T12:40:10.730Z,98358.85
2023-06-30T12:42:46.585Z,98369.68
2023-06-30T12:45:17.660Z,98359.63
2023-06-30T12:47:47.721Z,98364.24
2023-06-30T12:50:18.413Z,98374.41
2023-06-30T12:52:50.009Z,98378.48
2023-06-30T12:55:23.858Z,98379.39
2023-06-30T12:57:54.039Z,98380.54
2023-06-30T13:00:24.315Z,98378.92
2023-06-30T13:02:56.453Z,98380.69
2023-06-30T13:05:26.175Z,98379.19
2023-06-30T13:07:58.367Z,98381.90
2023-06-30T13:10:29.245Z,98381.87
2023-06-30T13:12:59.964Z,98378.76
2023-06-30T13:15:34.131Z,98375.61
2023-06-30T13:18:03.416Z,98374.80
2023-06-30T13:20:34.000Z,98366.88
2023-06-30T13:23:14.555Z,98364.84
2023-06-30T13:25:53.415Z,98361.60
2023-06-30T13:28:24.712Z,98357.71
2023-06-30T13:30:55.612Z,98357.25
2023-06-30T13:33:27.459Z,98352.60
2023-06-30T13:35:57.610Z,98344.61
2023-06-30T13:38:27.624Z,98340.09
2023-06-30T13:40:57.547Z,98336.54
2023-06-30T13:43:29.682Z,98341.81
2023-06-30T13:46:02.535Z,98329.41
2023-06-30T13:48:34.717Z,98315.55
2023-06-30T13:51:06.284Z,98310.45
2023-06-30T13:53:38.131Z,98305.21
2023-06-30T13:56:09.487Z,98305.68
2023-06-30T13:58:41.951Z,98308.27
2023-06-30T14:01:16.508Z,98306.50
2023-06-30T14:03:52.299Z,98305.13
2023-06-30T14:06:22.146Z,98308.88
2023-06-30T14:08:51.936Z,98303.42
2023-06-30T14:11:22.667Z,98299.63
2023-06-30T14:13:52.035Z,98296.98
2023-06-30T14:16:22.307Z,98290.73
2023-06-30T14:18:52.787Z,98286.92
2023-06-30T14:21:22.833Z,98290.67
2023-06-30T14:23:53.193Z,98293.21
2023-06-30T14:26:23.744Z,98288.05
2023-06-30T14:28:56.994Z,98286.67
2023-06-30T14:31:27.052Z,98284.10
2023-06-30T14:33:56.598Z,98279.63
2023-06-30T14:36:27.764Z,98279.85
2023-06-30T14:38:57.500Z,98278.43
2023-06-30T14:41:27.538Z,98272.32
2023-06-30T14:43:59.452Z,98269.91
2023-06-30T14:46:31.539Z,98268.96
2023-06-30T14:49:01.540Z,98266.67
2023-06-30T14:51:30.815Z,98264.54
2023-06-30T14:54:00.967Z,98256.78
2023-06-30T14:56:31.323Z,98257.61
2023-06-30T14:59:00.723Z,98256.75
2023-06-30T15:01:30.290Z,98259.77
2023-06-30T15:04:00.832Z,98251.20
2023-06-30T15:06:30.797Z,98248.02
2023-06-30T15:08:59.865Z,98239.85
2023-06-30T15:11:29.956Z,98236.95
2023-06-30T15:14:00.059Z,98239.05
2023-06-30T15:16:29.424Z,98245.66
2023-06-30T15:18:59.443Z,98250.20
2023-06-30T15:21:29.118Z,98240.59
2023-06-30T15:23:58.471Z,98245.51
2023-06-30T15:26:28.225Z,98245.29
2023-06-30T15:28:58.614Z,98240.80
2023-06-30T15:34:03.618Z,98233.63
2023-06-30T15:36:33.493Z,98221.80
2023-06-30T15:39:05.089Z,98217.58
2023-06-30T15:41:34.573Z,98217.06
2023-06-30T15:44:05.536Z,98219.47
2023-06-30T15:46:36.250Z,98212.23
2023-06-30T15:49:06.764Z,98203.02
2023-06-30T15:51:36.380Z,98213.92
2023-06-30T15:54:06.543Z,98220.30
2023-06-30T15:56:36.380Z,98219.30
2023-06-30T15:59:05.954Z,98215.95
2023-06-30T16:01:36.044Z,98215.03
2023-06-30T16:04:06.314Z,98213.63
2023-06-30T16:06:36.350Z,98203.92
2023-06-30T16:09:06.344Z,98198.80
2023-06-30T16:11:36.924Z,98197.19
2023-06-30T16:14:07.292Z,98198.94
2023-06-30T16:16:37.582Z,98185.90
2023-06-30T16:19:07.469Z,98180.33
2023-06-30T16:21:40.663Z,98177.70
2023-06-30T16:24:11.285Z,98174.02
2023-06-30T16:26:42.039Z,98178.42
2023-06-30T16:29:13.942Z,98174.55
2023-06-30T16:31:44.975Z,98170.73
2023-06-30T16:34:15.389Z,98170.19
2023-06-30T16:36:48.073Z,98187.60
2023-06-30T16:39:17.619Z,98189.58
2023-06-30T16:41:47.902Z,98188.85
2023-06-30T16:44:19.245Z,98173.26
2023-06-30T16:46:49.383Z,98171.02
2023-06-30T16:49:21.168Z,98175.95
2023-06-30T16:51:52.831Z,98169.38
2023-06-30T16:54:22.363Z,98178.09
2023-06-30T16:56:52.474Z,98182.45
2023-06-30T16:59:22.578Z,98177.94
2023-06-30T17:01:56.147Z,98167.77
2023-06-30T17:04:26.127Z,98169.14
2023-06-30T17:06:56.270Z,98175.96
2023-06-30T17:09:26.573Z,98184.38
2023-06-30T17:11:56.617Z,98176.76
2023-06-30T17:14:26.489Z,98172.95
2023-06-30T17:16:56.534Z,98178.90
2023-06-30T17:19:29.323Z,98180.52
2023-06-30T17:21:59.856Z,98185.94
2023-06-30T17:24:30.279Z,98187.05
2023-06-30T17:27:02.306Z,98184.00
2023-06-30T17:29:32.208Z,98188.86
2023-06-30T17:32:02.785Z,98170.67
2023-06-30T17:34:32.981Z,98158.38
2023-06-30T17:37:12.387Z,98149.23
2023-06-30T17:39:42.656Z,98147.22
2023-06-30T17:42:13.370Z,98143.18
2023-06-30T17:44:45.375Z,98146.63
2023-06-30T17:47:15.437Z,98148.70
2023-06-30T17:49:48.053Z,98149.13
2023-06-30T17:52:18.114Z,98160.70
2023-06-30T17:54:47.500Z,98166.08
2023-06-30T17:57:17.108Z,98162.89
2023-06-30T17:59:46.769Z,98171.06
2023-06-30T18:02:16.942Z,98168.95
2023-06-30T18:04:46.641Z,98167.83
2023-06-30T18:07:15.947Z,98177.06
2023-06-30T18:09:46.180Z,98184.17
2023-06-30T18:12:15.664Z,98197.90
2023-06-30T18:14:45.942Z,98201.94
2023-06-30T18:17:16.692Z,98200.67
2023-06-30T18:19:46.940Z,98208.77
2023-06-30T18:22:16.270Z,98214.54
2023-06-30T18:24:45.559Z,98215.67
2023-06-30T18:27:15.033Z,98210.81
2023-06-30T18:29:44.907Z,98214.25
2023-06-30T18:32:14.614Z,98213.61
2023-06-30T18:34:46.297Z,98223.46
2023-06-30T18:37:16.150Z,98222.80
2023-06-30T18:39:45.456Z,98221.84
2023-06-30T18:42:15.475Z,98220.02
2023-06-30T18:44:45.230Z,98220.88
2023-06-30T18:47:15.546Z,98217.14
2023-06-30T18:49:45.744Z,98218.61
2023-06-30T18:52:16.421Z,98220.20
2023-06-30T18:54:46.665Z,98224.92
2023-06-30T18:57:16.395Z,98226.90
2023-06-30T18:59:46.581Z,98228.91
2023-06-30T19:02:16.417Z,98229.66
2023-06-30T19:04:47.441Z,98221.61
2023-06-30T19:07:17.191Z,98217.50
2023-06-30T19:09:47.370Z,98215.39
2023-06-30T19:12:17.179Z,98227.35
2023-06-30T19:14:47.047Z,98246.57
2023-06-30T19:17:17.075Z,98267.75
2023-06-30T19:19:46.325Z,98271.25
2023-06-30T19:22:16.232Z,98285.05
2023-06-30T19:24:46.059Z,98285.55
2023-06-30T19:27:17.665Z,98272.84
2023-06-30T19:29:49.519Z,98268.63
2023-06-30T19:32:19.718Z,98270.20
2023-06-30T19:34:50.202Z,98250.51
2023-06-30T19:37:20.380Z,98252.33
2023-06-30T19:39:50.556Z,98258.99
2023-06-30T19:42:21.525Z,98264.98
2023-06-30T19:44:51.120Z,98259.53
2023-06-30T19:47:23.030Z,98264.86
2023-06-30T19:49:54.321Z,98265.23
2023-06-30T19:52:24.689Z,98264.89
2023-06-30T19:54:56.132Z,98269.85
2023-06-30T19:57:27.190Z,98269.88
2023-06-30T19:59:58.060Z,98274.83
2023-06-30T20:02:29.015Z,98286.83
2023-06-30T20:04:59.832Z,98290.38
2023-06-30T20:07:30.821Z,98296.80
2023-06-30T20:10:01.942Z,98301.06
2023-06-30T20:12:34.424Z,98296.05
2023-06-30T20:15:08.480Z,98291.31
2023-06-30T20:17:39.775Z,98283.44
2023-06-30T20:20:14.833Z,98278.34
2023-06-30T20:22:46.704Z,98285.52
2023-06-30T20:25:20.167Z,98296.54
2023-06-30T20:27:53.485Z,98308.21
2023-06-30T20:30:25.003Z,98317.08
2023-06-30T20:32:55.492Z,98310.41
2023-06-30T20:35:25.470Z,98307.86
2023-06-30T20:37:57.062Z,98315.11
2023-06-30T20:40:27.651Z,98315.51
2023-06-30T20:42:59.233Z,98298.79
2023-06-30T20:45:32.589Z,98297.30
2023-06-30T20:48:04.053Z,98301.99
2023-06-30T20:50:35.462Z,98278.84
2023-06-30T20:53:05.656Z,98262.12
2023-06-30T20:55:36.012Z,98290.36
2023-06-30T20:58:06.505Z,98285.23
2023-06-30T21:00:36.752Z,98266.42
2023-06-30T21:03:09.311Z,98245.30
2023-06-30T21:05:41.339Z,98229.09
2023-06-30T21:08:12.742Z,98233.09
2023-06-30T21:10:45.877Z,98250.98
2023-06-30T21:13:17.111Z,98258.02
2023-06-30T21:15:48.870Z,98276.63
2023-06-30T21:18:24.083Z,98294.71
2023-06-30T21:20:58.382Z,98301.50
2023-06-30T21:23:32.843Z,98308.60
2023-06-30T21:26:25.871Z,98321.79
2023-06-30T21:28:56.689Z,98315.61
2023-06-30T21:31:26.039Z,98309.31
2023-06-30T21:33:55.785Z,98289.60
2023-06-30T21:36:24.894Z,98286.86
2023-06-30T21:38:54.474Z,98258.53
2023-06-30T21:41:24.479Z,98246.90
2023-06-30T21:43:54.597Z,98253.73
2023-06-30T21:46:26.327Z,98242.98
2023-06-30T21:48:58.456Z,98238.13
2023-06-30T21:51:30.819Z,98244.36
2023-06-30T21:54:06.336Z,98253.84
2023-06-30T21:56:37.210Z,98257.66
2023-06-30T21:59:08.715Z,98262.33
2023-06-30T22:01:42.182Z,98261.88
2023-06-30T22:04:15.350Z,98262.28
2023-06-30T22:06:49.089Z,98256.55
2023-06-30T22:09:19.608Z,98248.33
2023-06-30T22:11:50.599Z,98230.90
2023-06-30T22:14:21.520Z,98210.61
2023-06-30T22:16:55.339Z,98203.41
2023-06-30T22:19:28.422Z,98201.42
2023-06-30T22:22:00.635Z,98202.12
2023-06-30T22:24:30.603Z,98206.94
2023-06-30T22:27:02.261Z,98219.55
2023-06-30T22:29:34.074Z,98225.47
2023-06-30T22:32:05.831Z,98221.00
2023-06-30T22:34:36.824Z,98222.63
2023-06-30T22:37:06.974Z,98218.27
2023-06-30T22:39:36.055Z,98215.40
2023-06-30T22:42:06.282Z,98207.21
2023-06-30T22:44:35.358Z,98200.66
2023-06-30T22:47:04.937Z,98197.82
2023-06-30T22:49:34.199Z,98208.79
2023-06-30T22:52:04.309Z,98227.14
2023-06-30T22:54:35.863Z,98261.62
2023-06-30T22:57:05.919Z,98283.29
2023-06-30T22:59:35.354Z,98280.42
2023-06-30T23:02:05.352Z,98251.01
2023-06-30T23:04:34.971Z,98259.36
2023-06-30T23:07:04.802Z,98283.64
2023-06-30T23:09:33.952Z,98274.40
2023-06-30T23:12:03.579Z,98255.61
2023-06-30T23:14:32.832Z,98202.48
2023-06-30T23:17:03.917Z,98171.55
2023-06-30T23:19:36.218Z,98171.67
2023-06-30T23:22:09.921Z,98196.21
2023-06-30T23:24:40.287Z,98189.61
2023-06-30T23:27:09.970Z,98203.29
2023-06-30T23:29:39.557Z,98192.69
2023-06-30T23:32:11.443Z,98182.10
2023-06-30T23:34:41.631Z,98185.03
2023-06-30T23:37:19.043Z,98169.04
2023-06-30T23:39:53.014Z,98151.73
2023-06-30T23:42:22.744Z,98158.88
2023-06-30T23:44:52.891Z,98166.85
2023-06-30T23:47:22.448Z,98164.83
2023-06-30T23:49:51.669Z,98170.50
2023-06-30T23:52:21.040Z,98179.02
2023-06-30T23:54:50.694Z,98170.34
2023-06-30T23:57:21.702Z,98156.25
2023-06-30T23:59:52.282Z,98141.59
